Time;durP1;ratioP1;P1;durP2;ratioP2;P2;SDS_P1;SDS_P2;PMS_P1;PMS_P2;Temp;Humidity;BMP_temperature;BMP_pressure;BME280_temperature;BME280_humidity;BME280_pressure;Samples;Min_cycle;Max_cycle;Signal;HPM_P1;HPM_P2
2021/12/01 00:00:18;;;;;;;11.07;8.87;;;;;;;-1.86;67.75;94534.97;5043712;28;20237;-64
2021/12/01 00:02:44;;;;;;;10.43;8.40;;;;;;;-2.05;68.21;94551.47;5042584;28;20237;-65
2021/12/01 00:05:10;;;;;;;11.47;8.83;;;;;;;-1.98;68.10;94533.09;5044327;28;20205;-64
2021/12/01 00:07:37;;;;;;;11.87;8.90;;;;;;;-2.02;67.91;94548.72;5043288;28;20233;-66
2021/12/01 00:10:06;;;;;;;10.03;8.33;;;;;;;-2.05;68.57;94553.22;5041795;28;20222;-64
2021/12/01 00:12:32;;;;;;;11.90;9.17;;;;;;;-2.23;68.83;94547.38;5045067;28;20294;-64
2021/12/01 00:14:57;;;;;;;11.47;8.50;;;;;;;-2.02;68.25;94538.41;5043003;28;20229;-64
2021/12/01 00:17:23;;;;;;;10.83;8.60;;;;;;;-2.11;67.88;94546.69;5041438;28;20214;-65
2021/12/01 00:19:48;;;;;;;10.27;8.37;;;;;;;-1.97;67.60;94570.84;5048977;28;20214;-65
2021/12/01 00:22:14;;;;;;;10.93;8.43;;;;;;;-1.94;67.90;94534.59;5037973;28;20267;-64
2021/12/01 00:24:39;;;;;;;9.83;8.30;;;;;;;-2.11;67.90;94526.06;5042775;28;20229;-66
2021/12/01 00:27:05;;;;;;;9.37;8.20;;;;;;;-2.18;68.20;94536.81;5041581;28;20222;-67
2021/12/01 00:29:30;;;;;;;9.43;8.37;;;;;;;-2.14;67.65;94538.28;5042109;28;20274;-64
2021/12/01 00:31:56;;;;;;;11.30;8.83;;;;;;;-2.06;68.11;94542.09;5041057;28;20213;-64
2021/12/01 00:34:21;;;;;;;13.07;8.37;;;;;;;-2.17;68.18;94541.84;5035620;28;20232;-65
2021/12/01 00:36:47;;;;;;;10.63;8.60;;;;;;;-2.22;67.96;94523.25;5043996;28;20217;-64
2021/12/01 00:39:12;;;;;;;12.63;8.93;;;;;;;-2.28;67.87;94524.44;5041462;28;20226;-65
2021/12/01 00:41:38;;;;;;;11.13;8.47;;;;;;;-2.29;68.11;94509.91;5042631;28;20218;-67
2021/12/01 00:44:06;;;;;;;8.97;7.60;;;;;;;-2.28;67.87;94514.13;5049986;28;20229;-64
2021/12/01 00:46:42;;;;;;;11.53;7.97;;;;;;;-2.09;67.27;94513.09;5046837;28;20249;-64
2021/12/01 00:49:08;;;;;;;9.33;7.83;;;;;;;-2.10;68.02;94532.88;5042259;28;20224;-64
2021/12/01 00:51:33;;;;;;;10.00;7.93;;;;;;;-2.24;68.27;94510.50;5045328;28;20217;-67
2021/12/01 00:53:59;;;;;;;9.83;7.87;;;;;;;-2.31;68.18;94519.47;5048494;28;20233;-64
2021/12/01 00:56:24;;;;;;;9.57;7.87;;;;;;;-2.35;67.59;94522.28;5053644;28;20260;-65
2021/12/01 00:58:51;;;;;;;9.17;7.80;;;;;;;-2.44;67.95;94500.47;5055534;28;20205;-65
2021/12/01 01:01:17;;;;;;;9.40;7.30;;;;;;;-2.38;67.60;94522.47;5046907;28;20233;-67
2021/12/01 01:03:43;;;;;;;8.07;7.27;;;;;;;-2.29;67.31;94525.38;5042759;28;20252;-68
2021/12/01 01:06:08;;;;;;;8.87;7.03;;;;;;;-2.40;67.69;94509.69;5040518;28;20226;-68
2021/12/01 01:08:34;;;;;;;8.07;7.20;;;;;;;-2.42;67.98;94510.69;5051785;28;20237;-67
2021/12/01 01:16:23;;;;;;;8.17;6.77;;;;;;;-2.37;67.55;94516.44;5049266;28;20219;-69
2021/12/01 01:18:52;;;;;;;8.63;6.60;;;;;;;-2.30;67.53;94523.72;5057196;28;20224;-67
2021/12/01 01:21:18;;;;;;;7.33;6.17;;;;;;;-2.32;67.56;94541.00;5044540;28;20259;-65
2021/12/01 01:23:44;;;;;;;8.00;6.73;;;;;;;-2.33;68.28;94531.59;5046381;28;22412;-65
2021/12/01 01:26:13;;;;;;;7.63;6.83;;;;;;;-2.32;67.98;94542.75;5038688;28;20296;-63
2021/12/01 01:28:39;;;;;;;6.83;6.10;;;;;;;-2.27;68.05;94523.53;5039141;28;20234;-63
2021/12/01 01:31:05;;;;;;;7.43;6.23;;;;;;;-2.19;68.93;94525.69;5049110;28;20247;-65
2021/12/01 01:33:30;;;;;;;8.43;6.30;;;;;;;-2.18;68.10;94547.13;5048092;28;20229;-66
2021/12/01 01:35:56;;;;;;;8.43;5.67;;;;;;;-2.24;67.10;94567.16;5050508;28;20236;-65
2021/12/01 01:38:22;;;;;;;8.17;6.33;;;;;;;-2.10;67.71;94552.66;5050075;28;20220;-65
2021/12/01 01:40:47;;;;;;;7.27;5.93;;;;;;;-2.16;68.14;94538.38;5051149;28;20229;-66
2021/12/01 01:43:14;;;;;;;8.07;6.00;;;;;;;-2.23;67.68;94566.22;5042351;28;20243;-65
2021/12/01 01:45:39;;;;;;;8.43;5.87;;;;;;;-2.15;68.21;94554.66;5048552;28;20229;-69
2021/12/01 01:48:13;;;;;;;6.63;5.67;;;;;;;-2.15;67.57;94540.03;5052941;28;20224;-64
2021/12/01 01:50:42;;;;;;;7.33;6.00;;;;;;;-2.20;67.76;94544.63;5043912;28;20264;-63
2021/12/01 01:53:17;;;;;;;9.27;6.57;;;;;;;-2.30;67.92;94528.88;5040074;28;20208;-64
2021/12/01 01:55:45;;;;;;;7.37;6.63;;;;;;;-2.37;68.33;94535.28;5046460;28;20225;-64
2021/12/01 01:58:12;;;;;;;7.87;6.30;;;;;;;-2.33;68.55;94523.88;5052958;28;20288;-64
2021/12/01 02:00:45;;;;;;;8.57;6.73;;;;;;;-2.31;68.34;94492.91;5047684;28;20229;-64
2021/12/01 02:03:14;;;;;;;7.20;5.90;;;;;;;-2.31;67.45;94508.34;5041666;28;20241;-65
2021/12/01 02:05:40;;;;;;;7.73;6.20;;;;;;;-2.28;68.44;94523.63;5046711;28;20270;-63
2021/12/01 02:08:15;;;;;;;6.83;5.87;;;;;;;-2.30;68.52;94517.72;5041447;28;20225;-63
2021/12/01 02:10:42;;;;;;;7.63;6.57;;;;;;;-2.25;68.06;94510.56;5049097;28;20242;-63
2021/12/01 02:13:08;;;;;;;7.97;6.80;;;;;;;-2.26;68.52;94496.88;5036433;28;20233;-64
2021/12/01 02:15:35;;;;;;;9.30;7.30;;;;;;;-2.08;68.34;94515.59;5049422;28;20233;-63
2021/12/01 02:18:01;;;;;;;7.80;6.73;;;;;;;-2.06;69.16;94505.19;5047645;28;20297;-65
2021/12/01 02:20:26;;;;;;;6.77;5.90;;;;;;;-2.01;68.31;94487.72;5047527;28;20210;-65
2021/12/01 02:22:52;;;;;;;8.13;5.90;;;;;;;-1.89;67.88;94494.75;5044355;28;20226;-64
2021/12/01 02:25:23;;;;;;;7.80;5.80;;;;;;;-1.92;67.92;94494.09;5043672;28;20229;-64
2021/12/01 02:27:49;;;;;;;7.50;6.53;;;;;;;-1.93;67.38;94500.16;5046985;28;20241;-64
2021/12/01 02:30:15;;;;;;;10.37;6.43;;;;;;;-1.86;68.22;94509.19;5048228;28;20218;-65
2021/12/01 02:32:40;;;;;;;7.87;5.77;;;;;;;-1.77;68.63;94488.84;5040513;28;20209;-64
2021/12/01 02:35:06;;;;;;;8.27;6.27;;;;;;;-1.94;68.22;94470.16;5038167;28;20269;-66
2021/12/01 02:37:32;;;;;;;7.47;5.90;;;;;;;-1.95;67.67;94483.94;5043974;28;20228;-64
2021/12/01 02:39:58;;;;;;;6.83;5.93;;;;;;;-1.98;67.81;94479.81;5042473;28;20230;-64
2021/12/01 02:42:23;;;;;;;6.13;5.53;;;;;;;-1.97;68.47;94481.47;5042150;28;20229;-65
2021/12/01 02:44:49;;;;;;;7.37;5.90;;;;;;;-1.95;68.23;94478.78;5043926;28;20329;-68
2021/12/01 02:47:14;;;;;;;6.70;5.63;;;;;;;-1.96;67.84;94492.59;5044312;28;20256;-66
2021/12/01 02:49:40;;;;;;;8.60;5.50;;;;;;;-1.81;66.81;94497.69;5044064;28;20250;-69
2021/12/01 02:52:06;;;;;;;8.23;5.57;;;;;;;-1.78;67.29;94481.22;5043942;28;20238;-65
2021/12/01 02:54:32;;;;;;;6.67;5.60;;;;;;;-1.82;67.17;94495.19;5043858;28;20217;-64
2021/12/01 02:57:00;;;;;;;5.87;5.27;;;;;;;-1.72;67.35;94514.34;5054387;28;20295;-67
2021/12/01 02:59:26;;;;;;;6.30;5.30;;;;;;;-1.77;67.10;94498.34;5047937;28;20202;-67
2021/12/01 03:01:53;;;;;;;7.23;5.40;;;;;;;-1.93;67.89;94500.97;5042714;28;20209;-68
2021/12/01 03:04:21;;;;;;;5.27;4.50;;;;;;;-1.77;67.39;94518.97;5048495;28;20221;-64
2021/12/01 03:06:49;;;;;;;7.10;5.27;;;;;;;-1.81;67.95;94489.16;5042837;28;20225;-65
2021/12/01 03:09:15;;;;;;;5.77;5.23;;;;;;;-1.65;67.46;94496.81;5043400;28;20233;-65
2021/12/01 03:11:44;;;;;;;12.23;5.87;;;;;;;-1.63;67.13;94506.09;5047228;28;20205;-65
2021/12/01 03:14:13;;;;;;;5.20;4.67;;;;;;;-1.67;67.20;94490.91;5042159;28;20226;-64
2021/12/01 03:16:42;;;;;;;5.57;5.07;;;;;;;-1.66;67.63;94515.75;5040695;28;20214;-68
2021/12/01 03:19:08;;;;;;;6.13;5.37;;;;;;;-1.74;68.03;94503.31;5043581;28;20237;-68
2021/12/01 03:21:38;;;;;;;8.33;5.67;;;;;;;-1.78;68.13;94504.41;5044950;28;20234;-65
2021/12/01 03:24:04;;;;;;;6.33;4.83;;;;;;;-1.77;67.67;94524.94;5046415;28;20218;-65
2021/12/01 03:26:30;;;;;;;6.77;5.63;;;;;;;-1.85;68.00;94493.63;5050742;28;20213;-68
2021/12/01 03:28:56;;;;;;;6.90;5.33;;;;;;;-1.90;68.30;94528.31;5041981;28;20210;-67
2021/12/01 03:31:22;;;;;;;6.10;5.13;;;;;;;-1.93;68.70;94529.31;5040519;28;20217;-64
2021/12/01 03:33:48;;;;;;;5.53;5.00;;;;;;;-1.90;68.96;94539.44;5045800;28;20244;-65
2021/12/01 03:36:13;;;;;;;5.57;4.73;;;;;;;-1.83;68.29;94538.19;5044578;28;20283;-65
2021/12/01 03:38:39;;;;;;;6.27;5.10;;;;;;;-1.86;68.68;94524.66;5035092;28;20214;-66
2021/12/01 03:41:04;;;;;;;6.30;4.90;;;;;;;-1.79;68.04;94538.84;5045286;28;20204;-66
2021/12/01 03:43:30;;;;;;;6.30;5.30;;;;;;;-1.74;67.96;94526.50;5043255;28;20249;-65
2021/12/01 03:45:55;;;;;;;8.27;5.17;;;;;;;-1.86;68.08;94520.31;5047731;28;20244;-68
2021/12/01 03:48:22;;;;;;;6.40;5.13;;;;;;;-1.59;67.63;94517.88;5039255;28;20242;-65
2021/12/01 03:50:49;;;;;;;6.43;5.20;;;;;;;-1.67;68.29;94521.84;5028593;28;20222;-64
2021/12/01 03:53:17;;;;;;;6.33;5.53;;;;;;;-1.68;68.55;94536.47;5046385;28;20283;-64
2021/12/01 03:55:43;;;;;;;6.87;5.27;;;;;;;-1.67;68.35;94525.22;5040416;28;20222;-66
2021/12/01 03:58:08;;;;;;;6.47;5.07;;;;;;;-1.66;67.83;94531.22;5040823;28;20217;-65
2021/12/01 04:00:34;;;;;;;5.47;4.50;;;;;;;-1.66;68.24;94536.38;5047986;28;20227;-64
2021/12/01 04:03:00;;;;;;;8.47;4.63;;;;;;;-1.61;68.23;94534.34;5044392;28;20283;-64
2021/12/01 04:05:26;;;;;;;5.80;4.90;;;;;;;-1.53;67.96;94519.25;5039402;28;20320;-68
2021/12/01 04:07:51;;;;;;;6.07;5.07;;;;;;;-1.51;68.23;94507.09;5044260;28;20217;-67
2021/12/01 04:10:17;;;;;;;6.47;4.63;;;;;;;-1.47;67.83;94505.16;5042180;28;20218;-69
2021/12/01 04:12:43;;;;;;;5.70;4.60;;;;;;;-1.44;68.18;94511.00;5042360;28;20221;-67
2021/12/01 04:15:10;;;;;;;6.07;4.90;;;;;;;-1.34;67.61;94501.78;5048383;28;20218;-68
2021/12/01 04:17:36;;;;;;;5.43;4.73;;;;;;;-1.44;67.26;94485.19;5043330;28;20206;-65
2021/12/01 04:20:03;;;;;;;7.57;4.90;;;;;;;-1.56;67.37;94496.25;5042133;28;20208;-65
2021/12/01 04:22:28;;;;;;;5.97;4.83;;;;;;;-1.58;67.57;94490.34;5046442;28;20235;-64
2021/12/01 04:24:54;;;;;;;6.10;4.67;;;;;;;-1.66;67.82;94508.84;5045029;28;20250;-66
2021/12/01 04:27:20;;;;;;;5.40;4.53;;;;;;;-1.66;67.99;94501.09;5038399;28;20298;-68
2021/12/01 04:29:45;;;;;;;5.70;5.10;;;;;;;-1.62;67.65;94487.13;5039587;28;20236;-66
2021/12/01 04:32:11;;;;;;;6.37;5.27;;;;;;;-1.57;67.01;94473.97;5033737;28;20217;-64
2021/12/01 04:34:37;;;;;;;5.87;5.27;;;;;;;-1.64;67.54;94486.38;5048564;28;20228;-64
2021/12/01 04:37:04;;;;;;;7.10;5.27;;;;;;;-1.64;67.48;94485.56;5040889;28;20214;-64
2021/12/01 04:39:29;;;;;;;8.23;5.07;;;;;;;-1.67;68.00;94499.44;5041216;28;20238;-65
2021/12/01 04:41:58;;;;;;;5.40;4.77;;;;;;;-1.66;68.52;94503.69;5043621;28;20226;-65
2021/12/01 04:44:28;;;;;;;5.27;4.77;;;;;;;-1.55;68.96;94497.91;5043760;28;20305;-65
2021/12/01 04:46:56;;;;;;;5.47;4.97;;;;;;;-1.59;69.40;94501.59;5047273;28;20234;-65
2021/12/01 04:49:23;;;;;;;7.80;4.70;;;;;;;-1.58;70.10;94491.19;5043214;28;20218;-65
2021/12/01 04:51:53;;;;;;;6.37;5.37;;;;;;;-1.47;69.57;94505.16;5042726;28;20217;-63
2021/12/01 04:54:18;;;;;;;5.23;4.73;;;;;;;-1.51;69.79;94514.84;5046188;28;20234;-63
2021/12/01 04:56:46;;;;;;;6.63;4.77;;;;;;;-1.40;68.42;94522.75;5042264;28;20239;-64
2021/12/01 04:59:13;;;;;;;6.60;4.90;;;;;;;-1.45;68.97;94535.09;5042250;28;20210;-65
2021/12/01 05:01:40;;;;;;;5.73;4.97;;;;;;;-1.50;68.86;94503.59;5046721;28;20228;-64
2021/12/01 05:04:07;;;;;;;5.93;5.27;;;;;;;-1.53;69.21;94532.16;5043399;28;20220;-67
2021/12/01 05:06:33;;;;;;;6.00;5.30;;;;;;;-1.52;68.43;94538.97;5048980;28;20244;-63
2021/12/01 05:08:58;;;;;;;7.30;5.33;;;;;;;-1.46;67.61;94530.88;5041998;28;20275;-63
2021/12/01 05:11:25;;;;;;;7.27;4.60;;;;;;;-1.46;67.83;94548.91;5046080;28;20218;-64
2021/12/01 05:13:51;;;;;;;5.80;5.20;;;;;;;-1.46;68.04;94540.38;5040300;28;20237;-66
2021/12/01 05:16:16;;;;;;;8.13;5.60;;;;;;;-1.52;67.88;94554.44;5039021;28;20229;-63
2021/12/01 05:18:42;;;;;;;9.83;6.13;;;;;;;-1.45;68.20;94553.16;5047782;28;20281;-64
2021/12/01 05:21:08;;;;;;;7.03;5.97;;;;;;;-1.37;68.15;94556.09;5040043;28;20283;-64
2021/12/01 05:23:33;;;;;;;7.00;5.37;;;;;;;-1.37;67.36;94571.56;5044643;28;20205;-65
2021/12/01 05:25:59;;;;;;;9.37;6.00;;;;;;;-1.56;67.67;94545.22;5042812;28;20233;-63
2021/12/01 05:28:25;;;;;;;6.90;5.80;;;;;;;-1.49;68.26;94574.91;5046357;28;20229;-62
2021/12/01 05:30:50;;;;;;;7.90;5.20;;;;;;;-1.47;68.28;94567.91;5044505;28;20226;-64
2021/12/01 05:33:16;;;;;;;9.20;5.77;;;;;;;-1.32;67.31;94558.41;5045340;28;20237;-63
2021/12/01 05:35:43;;;;;;;6.33;5.70;;;;;;;-1.44;67.71;94547.09;5040059;28;20206;-63
2021/12/01 05:38:09;;;;;;;7.90;5.27;;;;;;;-1.48;67.16;94527.53;5043102;28;20241;-63
2021/12/01 05:40:35;;;;;;;7.03;5.37;;;;;;;-1.47;67.58;94538.69;5047221;28;20285;-64
2021/12/01 05:43:01;;;;;;;5.73;4.90;;;;;;;-1.46;66.78;94558.41;5043158;28;20218;-63
2021/12/01 05:45:26;;;;;;;7.57;5.43;;;;;;;-1.45;66.47;94560.06;5047717;28;20245;-62
2021/12/01 05:47:52;;;;;;;8.57;5.80;;;;;;;-1.49;66.61;94551.69;5042064;28;20233;-63
2021/12/01 05:50:18;;;;;;;6.47;5.73;;;;;;;-1.50;67.26;94556.91;5043812;28;20243;-62
2021/12/01 05:52:44;;;;;;;7.77;5.90;;;;;;;-1.45;67.15;94550.56;5040383;28;20234;-63
2021/12/01 05:55:10;;;;;;;7.10;6.07;;;;;;;-1.39;67.48;94547.66;5043722;28;20222;-63
2021/12/01 05:57:36;;;;;;;7.50;6.47;;;;;;;-1.30;67.78;94527.38;5042128;28;20233;-65
2021/12/01 06:00:08;;;;;;;13.87;7.07;;;;;;;-1.25;67.50;94561.47;5046706;28;20231;-64
2021/12/01 06:02:34;;;;;;;9.03;5.87;;;;;;;-1.27;67.34;94558.16;5041001;28;20223;-63
2021/12/01 06:05:00;;;;;;;8.80;6.03;;;;;;;-1.35;67.87;94558.59;5045106;28;20198;-63
2021/12/01 06:07:26;;;;;;;9.87;6.07;;;;;;;-1.41;67.70;94539.16;5040926;28;20225;-63
2021/12/01 06:09:51;;;;;;;6.40;5.70;;;;;;;-1.34;66.93;94550.78;5041079;28;20249;-63
2021/12/01 06:12:17;;;;;;;7.00;5.67;;;;;;;-1.30;67.17;94571.22;5045799;28;20235;-65
2021/12/01 06:14:45;;;;;;;9.20;5.83;;;;;;;-1.27;66.48;94574.44;5045661;28;20210;-61
2021/12/01 06:17:13;;;;;;;6.60;5.27;;;;;;;-1.18;66.60;94578.22;5046482;28;20206;-61
2021/12/01 06:19:40;;;;;;;7.17;6.07;;;;;;;-1.10;66.18;94576.00;5043656;28;20247;-61
2021/12/01 06:22:06;;;;;;;8.93;5.80;;;;;;;-1.04;66.33;94582.53;5047935;28;20337;-64
2021/12/01 06:24:32;;;;;;;7.00;5.80;;;;;;;-1.04;66.33;94567.06;5044557;28;20225;-62
2021/12/01 06:26:58;;;;;;;6.20;5.60;;;;;;;-1.03;65.34;94612.59;5044345;28;20236;-62
2021/12/01 06:29:23;;;;;;;6.00;5.00;;;;;;;-0.96;65.79;94581.19;5049513;28;20263;-62
2021/12/01 06:31:49;;;;;;;8.57;6.70;;;;;;;-0.89;66.46;94594.53;5042252;28;20209;-61
2021/12/01 06:34:14;;;;;;;9.70;6.77;;;;;;;-0.89;66.23;94585.03;5044701;28;20241;-62
2021/12/01 06:36:40;;;;;;;9.27;6.10;;;;;;;-0.84;66.34;94622.66;5046252;28;20226;-62
2021/12/01 06:39:07;;;;;;;8.03;6.10;;;;;;;-0.99;66.51;94593.41;5041820;28;20222;-62
2021/12/01 06:41:33;;;;;;;9.00;7.03;;;;;;;-0.87;67.11;94622.84;5048057;28;20213;-66
2021/12/01 06:44:00;;;;;;;10.83;6.63;;;;;;;-0.77;66.17;94613.63;5047378;28;20233;-64
2021/12/01 06:46:25;;;;;;;9.47;7.13;;;;;;;-0.86;67.09;94621.91;5043985;28;20226;-61
2021/12/01 06:48:51;;;;;;;9.73;7.63;;;;;;;-0.76;66.39;94630.75;5045957;28;20230;-63
2021/12/01 06:51:17;;;;;;;9.03;6.40;;;;;;;-0.63;65.66;94647.16;5043159;28;20222;-62
2021/12/01 06:53:43;;;;;;;9.67;6.87;;;;;;;-0.65;65.71;94643.00;5041868;28;20206;-64
2021/12/01 06:56:09;;;;;;;10.80;7.83;;;;;;;-0.61;65.55;94644.50;5031192;28;20217;-62
2021/12/01 06:58:36;;;;;;;8.37;7.33;;;;;;;-0.61;66.02;94653.06;5041512;28;20245;-64
2021/12/01 07:01:04;;;;;;;14.00;8.23;;;;;;;-0.38;64.87;94650.81;5043542;28;20222;-61
2021/12/01 07:03:31;;;;;;;10.07;8.40;;;;;;;-0.33;64.41;94638.44;5029144;28;20230;-63
2021/12/01 07:05:56;;;;;;;9.97;7.70;;;;;;;-0.42;64.91;94629.53;5053439;28;20228;-61
2021/12/01 07:08:23;;;;;;;11.87;7.43;;;;;;;-0.15;64.43;94639.06;5046344;28;20209;-61
2021/12/01 07:10:48;;;;;;;8.20;7.23;;;;;;;-0.04;63.98;94644.38;5044002;28;20221;-62
2021/12/01 07:13:14;;;;;;;9.73;7.43;;;;;;;0.14;63.07;94645.78;5056644;28;20221;-62
2021/12/01 07:15:39;;;;;;;10.13;8.47;;;;;;;0.30;63.89;94652.56;5045159;28;20218;-61
2021/12/01 07:18:05;;;;;;;9.20;7.33;;;;;;;0.51;62.61;94652.91;5037638;28;20279;-62
2021/12/01 07:20:30;;;;;;;9.80;6.60;;;;;;;0.79;61.37;94637.25;5038676;28;20206;-64
2021/12/01 07:22:56;;;;;;;7.67;5.83;;;;;;;0.97;61.70;94647.31;5039937;28;20256;-62
2021/12/01 07:25:21;;;;;;;7.00;5.80;;;;;;;1.16;59.90;94626.19;5043686;28;20281;-61
2021/12/01 07:27:47;;;;;;;8.23;6.37;;;;;;;1.28;60.33;94628.78;5042354;28;20221;-62
2021/12/01 07:30:13;;;;;;;8.77;6.00;;;;;;;1.36;59.36;94630.81;5042496;28;20222;-62
2021/12/01 07:32:38;;;;;;;11.23;6.97;;;;;;;1.19;60.21;94621.63;5049529;28;20236;-61
2021/12/01 07:35:04;;;;;;;8.90;6.43;;;;;;;1.23;60.78;94623.06;5045757;28;20202;-62
2021/12/01 07:37:30;;;;;;;7.97;6.00;;;;;;;1.20;60.88;94622.44;5034269;28;20340;-61
2021/12/01 07:39:56;;;;;;;6.87;6.13;;;;;;;1.47;59.49;94617.13;5037816;28;20225;-63
2021/12/01 07:42:21;;;;;;;7.53;6.30;;;;;;;1.48;59.17;94635.16;5042778;28;20218;-64
2021/12/01 07:44:47;;;;;;;7.60;6.43;;;;;;;1.73;57.78;94623.06;5041697;28;20237;-62
2021/12/01 07:47:12;;;;;;;8.50;6.47;;;;;;;1.89;58.56;94628.81;5043092;28;20320;-62
2021/12/01 07:49:39;;;;;;;7.97;6.70;;;;;;;2.14;58.45;94630.50;5043545;28;20221;-61
2021/12/01 07:52:05;;;;;;;10.00;7.03;;;;;;;1.96;59.31;94652.56;5046409;28;20228;-61
2021/12/01 07:54:32;;;;;;;10.73;7.07;;;;;;;1.86;59.86;94654.16;5040872;28;20283;-61
2021/12/01 07:56:57;;;;;;;8.17;6.10;;;;;;;1.75;60.65;94666.09;5048635;28;20232;-62
2021/12/01 07:59:23;;;;;;;6.33;5.63;;;;;;;1.98;60.03;94659.31;5045736;28;20202;-61
2021/12/01 08:01:50;;;;;;;7.73;6.03;;;;;;;2.31;59.38;94678.59;5038807;28;20271;-62
2021/12/01 08:04:16;;;;;;;6.50;5.80;;;;;;;2.25;59.08;94663.47;5039001;28;20241;-60
2021/12/01 08:06:43;;;;;;;7.77;6.07;;;;;;;2.24;58.37;94666.16;5042305;28;20232;-61
2021/12/01 08:09:10;;;;;;;7.60;5.50;;;;;;;2.35;57.42;94674.84;5030108;28;20276;-61
2021/12/01 08:11:35;;;;;;;8.93;5.93;;;;;;;2.32;58.04;94671.63;5042781;28;20209;-62
2021/12/01 08:14:01;;;;;;;8.30;6.20;;;;;;;2.48;57.40;94664.38;5049961;28;20205;-62
2021/12/01 08:16:27;;;;;;;9.90;6.07;;;;;;;2.61;57.74;94665.13;5037214;28;20260;-61
2021/12/01 08:18:55;;;;;;;6.70;5.93;;;;;;;2.63;57.39;94678.84;5041540;28;20288;-61
2021/12/01 08:21:22;;;;;;;9.67;6.83;;;;;;;2.65;57.87;94681.34;5037539;28;20235;-63
2021/12/01 08:23:48;;;;;;;7.83;6.50;;;;;;;2.63;57.46;94684.03;5043399;28;20244;-61
2021/12/01 08:26:14;;;;;;;7.93;6.70;;;;;;;2.74;58.36;94685.03;5043596;28;20228;-63
2021/12/01 08:28:41;;;;;;;11.30;6.97;;;;;;;2.51;58.77;94676.31;5042712;28;20218;-61
2021/12/01 08:31:07;;;;;;;8.07;7.17;;;;;;;2.57;58.68;94678.47;5044774;28;20237;-61
2021/12/01 08:33:33;;;;;;;10.37;7.63;;;;;;;2.73;58.04;94668.63;5041840;28;20293;-62
2021/12/01 08:35:59;;;;;;;10.10;8.20;;;;;;;2.73;57.30;94657.41;5038547;28;20237;-61
2021/12/01 08:38:24;;;;;;;8.63;7.17;;;;;;;2.81;57.64;94662.88;5048881;28;20202;-65
2021/12/01 08:40:50;;;;;;;13.37;7.47;;;;;;;2.99;56.54;94655.47;5038964;28;20210;-62
2021/12/01 08:43:15;;;;;;;11.17;7.40;;;;;;;2.96;56.74;94664.31;5043905;28;20253;-62
2021/12/01 08:45:41;;;;;;;10.37;7.10;;;;;;;2.89;56.53;94657.94;5043423;28;20309;-62
2021/12/01 08:48:06;;;;;;;9.30;6.93;;;;;;;2.94;57.36;94661.03;5046364;28;20233;-62
2021/12/01 08:50:33;;;;;;;8.47;6.87;;;;;;;2.93;57.87;94663.72;5033457;28;20214;-62
2021/12/01 08:52:59;;;;;;;11.27;7.77;;;;;;;3.13;57.25;94652.69;5038013;28;20253;-62
2021/12/01 08:55:25;;;;;;;9.40;6.47;;;;;;;3.18;57.77;94660.09;5046364;28;20221;-61
2021/12/01 08:57:52;;;;;;;12.07;7.57;;;;;;;3.49;56.62;94663.81;5042241;28;20225;-63
2021/12/01 09:00:20;;;;;;;9.07;6.80;;;;;;;3.31;57.04;94663.44;5039278;28;20225;-61
2021/12/01 09:02:46;;;;;;;8.40;7.07;;;;;;;3.49;57.81;94669.00;5039494;28;20221;-62
2021/12/01 09:05:12;;;;;;;8.53;7.13;;;;;;;3.52;56.40;94669.59;5040593;28;20225;-62
2021/12/01 09:07:37;;;;;;;7.87;6.73;;;;;;;3.65;55.83;94671.25;5046606;28;20237;-60
2021/12/01 09:10:04;;;;;;;8.70;6.67;;;;;;;3.57;56.33;94668.41;5045935;28;20229;-62
2021/12/01 09:12:30;;;;;;;8.43;6.57;;;;;;;3.74;56.04;94680.94;5045036;28;20236;-62
2021/12/01 09:14:56;;;;;;;11.67;6.97;;;;;;;4.05;56.14;94673.34;5045193;28;20245;-62
2021/12/01 09:17:23;;;;;;;8.90;7.23;;;;;;;4.33;55.46;94682.41;5046493;28;20193;-61
2021/12/01 09:19:49;;;;;;;11.00;6.90;;;;;;;4.01;56.79;94679.72;5054617;28;20231;-61
2021/12/01 09:22:17;;;;;;;9.33;6.97;;;;;;;3.77;57.30;94654.72;5043414;28;20236;-62
2021/12/01 09:24:43;;;;;;;12.40;7.73;;;;;;;3.66;57.68;94671.16;5043555;28;20245;-62
2021/12/01 09:27:09;;;;;;;10.70;6.80;;;;;;;3.83;57.04;94674.22;5041862;28;20230;-61
2021/12/01 09:29:35;;;;;;;10.57;7.30;;;;;;;3.75;58.26;94667.81;5042083;28;20248;-62
2021/12/01 09:32:01;;;;;;;8.57;7.00;;;;;;;3.69;58.47;94665.72;5047427;28;20276;-62
2021/12/01 09:34:26;;;;;;;9.80;8.13;;;;;;;3.73;59.83;94666.28;5054741;28;20244;-63
2021/12/01 09:36:53;;;;;;;9.73;7.67;;;;;;;3.77;57.91;94665.13;5044913;28;20225;-63
2021/12/01 09:39:19;;;;;;;11.77;7.70;;;;;;;3.93;57.15;94670.78;5042646;28;20229;-63
2021/12/01 09:41:45;;;;;;;9.30;7.50;;;;;;;3.93;56.25;94683.78;5044443;28;20260;-64
2021/12/01 09:44:10;;;;;;;8.10;7.30;;;;;;;4.09;57.18;94669.56;5043360;28;20342;-63
2021/12/01 09:46:36;;;;;;;14.70;8.10;;;;;;;3.89;58.64;94671.13;5044356;28;20293;-65
2021/12/01 09:49:04;;;;;;;11.03;8.10;;;;;;;3.91;58.07;94671.84;5044421;28;20214;-63
2021/12/01 09:51:30;;;;;;;11.13;8.17;;;;;;;3.88;58.25;94653.88;5043509;28;20227;-64
2021/12/01 09:53:57;;;;;;;8.43;7.50;;;;;;;4.00;58.62;94650.28;5042631;28;20360;-66
2021/12/01 09:56:24;;;;;;;9.63;7.10;;;;;;;4.31;57.55;94666.09;5043843;28;20194;-61
2021/12/01 09:58:50;;;;;;;9.17;7.13;;;;;;;4.30;57.53;94667.03;5042831;28;20225;-62
2021/12/01 10:01:19;;;;;;;11.40;8.43;;;;;;;4.34;58.07;94651.06;5047780;28;20292;-62
2021/12/01 10:03:45;;;;;;;12.07;9.87;;;;;;;4.48;55.62;94655.16;5043598;28;20230;-62
2021/12/01 10:06:16;;;;;;;10.83;9.07;;;;;;;4.58;56.46;94656.06;5053041;28;20220;-62
2021/12/01 10:08:59;;;;;;;12.33;9.07;;;;;;;4.53;56.84;94657.38;5045490;28;20206;-61
2021/12/01 10:11:34;;;;;;;10.93;8.87;;;;;;;4.62;57.89;94652.28;5043521;28;20217;-62
2021/12/01 10:14:02;;;;;;;10.33;8.73;;;;;;;4.81;57.99;94632.50;5047395;28;20213;-62
2021/12/01 10:16:33;;;;;;;12.03;9.47;;;;;;;4.99;56.92;94643.19;5044142;28;20248;-61
2021/12/01 10:19:04;;;;;;;11.77;9.73;;;;;;;5.14;57.25;94644.53;5043031;28;20260;-65
2021/12/01 10:21:43;;;;;;;14.70;9.53;;;;;;;5.22;58.62;94655.16;5045152;28;20217;-62
2021/12/01 10:24:11;;;;;;;11.27;8.33;;;;;;;5.37;56.98;94653.03;5044961;28;20221;-61
2021/12/01 10:26:40;;;;;;;11.53;9.00;;;;;;;5.39;56.74;94655.53;5043974;28;20282;-61
2021/12/01 10:29:09;;;;;;;9.03;8.10;;;;;;;5.59;55.08;94653.84;5047930;28;20229;-61
2021/12/01 10:31:41;;;;;;;10.83;8.10;;;;;;;5.60;56.19;94655.50;5041540;28;20253;-63
2021/12/01 10:34:16;;;;;;;12.80;8.10;;;;;;;5.91;54.52;94657.13;5045275;28;20225;-62
2021/12/01 10:36:44;;;;;;;10.23;8.33;;;;;;;6.06;54.30;94652.38;5036640;28;20231;-63
2021/12/01 10:39:09;;;;;;;9.43;7.60;;;;;;;6.23;53.14;94645.72;5052322;28;20237;-62
2021/12/01 10:41:37;;;;;;;13.80;7.27;;;;;;;6.29;53.51;94644.34;5044669;28;20206;-62
2021/12/01 10:44:18;;;;;;;12.57;7.93;;;;;;;6.21;55.16;94650.25;5038167;28;20230;-61
2021/12/01 10:46:53;;;;;;;10.23;7.33;;;;;;;6.44;52.61;94652.59;5036814;28;20240;-62
2021/12/01 10:49:32;;;;;;;8.97;7.13;;;;;;;6.32;52.34;94660.56;5043323;28;20352;-63
2021/12/01 10:51:58;;;;;;;10.53;7.53;;;;;;;6.29;52.81;94649.56;5042352;28;20282;-64
2021/12/01 10:54:23;;;;;;;10.73;7.97;;;;;;;6.39;51.70;94637.34;5043233;28;20246;-61
2021/12/01 10:57:22;;;;;;;10.30;8.03;;;;;;;6.40;52.64;94646.84;5041396;28;20229;-62
2021/12/01 10:59:50;;;;;;;13.23;9.20;;;;;;;6.45;52.31;94634.19;5044551;28;20252;-63
2021/12/01 11:02:17;;;;;;;12.60;9.07;;;;;;;6.50;51.85;94625.97;5044364;28;20293;-63
2021/12/01 11:04:48;;;;;;;18.20;12.07;;;;;;;6.49;52.77;94624.28;5052948;28;20571;-61
2021/12/01 11:07:28;;;;;;;19.93;12.63;;;;;;;6.67;53.14;94604.38;5041154;28;20283;-63
2021/12/01 11:10:12;;;;;;;11.60;8.43;;;;;;;7.11;50.55;94615.19;5039692;28;20221;-63
2021/12/01 11:12:37;;;;;;;12.40;9.03;;;;;;;7.36;50.51;94611.13;5042900;28;20325;-61
2021/12/01 11:15:27;;;;;;;13.10;9.23;;;;;;;7.36;50.11;94612.94;5041799;28;20214;-62
2021/12/01 11:17:54;;;;;;;12.30;9.50;;;;;;;7.41;48.86;94606.31;5042536;28;20229;-62
2021/12/01 11:20:40;;;;;;;13.47;9.47;;;;;;;7.74;48.79;94607.56;5043959;28;20209;-61
2021/12/01 11:23:14;;;;;;;13.30;8.73;;;;;;;7.62;49.56;94603.50;5042252;28;20244;-61
2021/12/01 11:25:41;;;;;;;11.63;8.77;;;;;;;7.61;50.08;94601.81;5040042;28;20293;-61
2021/12/01 11:28:12;;;;;;;12.80;10.17;;;;;;;7.80;50.41;94593.06;5039494;28;20240;-62
2021/12/01 11:30:38;;;;;;;12.87;9.30;;;;;;;7.60;49.38;94594.13;5038133;28;20225;-61
2021/12/01 11:33:03;;;;;;;13.03;9.27;;;;;;;7.62;51.08;94577.31;5043039;28;20222;-62
2021/12/01 11:35:29;;;;;;;12.13;8.63;;;;;;;7.82;48.40;94585.88;5041270;28;20206;-61
2021/12/01 11:37:55;;;;;;;11.93;8.37;;;;;;;7.96;48.94;94595.03;5039961;28;20210;-62